Time;durP1;ratioP1;P1;durP2;ratioP2;P2;SDS_P1;SDS_P2;PMS_P1;PMS_P2;Temp;Humidity;BMP_temperature;BMP_pressure;BME280_temperature;BME280_humidity;BME280_pressure;Samples;Min_cycle;Max_cycle;Signal;HPM_P1;HPM_P2
2023/03/06 00:00:51;;;;;;;;;;;;;;;12.90;45.07;101473.47;4789122;30;20413;-49
2023/03/06 00:03:18;;;;;;;;;;;;;;;12.62;45.85;101481.72;4788846;30;19967;-49
2023/03/06 00:05:43;;;;;;;;;;;;;;;12.64;45.25;101483.16;4788767;30;20051;-46
2023/03/06 00:08:09;;;;;;;;;;;;;;;12.70;45.22;101484.19;4788015;30;19959;-46
2023/03/06 00:10:35;;;;;;;;;;;;;;;12.62;45.87;101474.47;4788753;30;19924;-46
2023/03/06 00:13:03;;;;;;;;;;;;;;;12.41;46.92;101480.81;4788645;30;19917;-49
2023/03/06 00:15:29;;;;;;;;;;;;;;;12.47;46.53;101484.56;4789077;30;19970;-46
2023/03/06 00:17:56;;;;;;;;;;;;;;;12.36;46.51;101475.25;4797124;29;20400;-45
2023/03/06 00:20:22;;;;;;;;;;;;;;;12.27;46.22;101481.84;4803050;29;20522;-46
2023/03/06 00:22:48;;;;;;;;;;;;;;;12.23;47.05;101480.56;4789902;29;19928;-45
2023/03/06 00:25:16;;;;;;;;;;;;;;;12.25;46.78;101478.50;4797326;29;20384;-49
2023/03/06 00:27:42;;;;;;;;;;;;;;;12.23;47.61;101485.94;4787188;30;19918;-48
2023/03/06 00:30:10;;;;;;;;;;;;;;;12.16;47.64;101490.47;4788417;30;19931;-48
2023/03/06 00:32:36;;;;;;;;;;;;;;;12.09;46.97;101490.41;4788258;30;19921;-46
2023/03/06 00:35:02;;;;;;;;;;;;;;;12.12;46.52;101489.22;4795507;29;19921;-53
2023/03/06 00:37:28;;;;;;;;;;;;;;;12.09;46.41;101486.91;4806138;29;19917;-45
2023/03/06 00:39:54;;;;;;;;;;;;;;;11.96;47.18;101490.38;4794242;29;19945;-48
2023/03/06 00:42:20;;;;;;;;;;;;;;;12.04;46.89;101497.41;4784996;29;19967;-44
2023/03/06 00:44:46;;;;;;;;;;;;;;;11.89;46.71;101490.34;4788114;30;20374;-45
2023/03/06 00:47:12;;;;;;;;;;;;;;;11.72;47.05;101483.63;4787524;30;20414;-46
2023/03/06 00:49:38;;;;;;;;;;;;;;;11.67;47.21;101491.44;4803213;29;19952;-47
2023/03/06 00:52:04;;;;;;;;;;;;;;;11.78;47.26;101490.03;4806070;29;19964;-45
2023/03/06 00:54:30;;;;;;;;;;;;;;;11.74;47.46;101489.59;4805920;29;20017;-45
2023/03/06 00:56:56;;;;;;;;;;;;;;;11.69;47.64;101496.59;4805398;29;20011;-46
2023/03/06 00:59:22;;;;;;;;;;;;;;;11.58;48.32;101487.22;4787847;29;20432;-45
2023/03/06 01:01:47;;;;;;;;;;;;;;;11.57;49.00;101488.25;4771547;30;20074;-47
2023/03/06 01:04:14;;;;;;;;;;;;;;;11.52;49.10;101494.22;4777312;29;20051;-49
2023/03/06 01:06:39;;;;;;;;;;;;;;;11.56;49.02;101497.34;4784446;29;19921;-45
2023/03/06 01:09:05;;;;;;;;;;;;;;;11.37;50.05;101496.97;4786743;29;20012;-46
2023/03/06 01:11:31;;;;;;;;;;;;;;;11.30;49.79;101504.16;4785416;29;20038;-45
2023/03/06 01:13:57;;;;;;;;;;;;;;;11.26;49.08;101508.22;4786278;30;20420;-47
2023/03/06 01:16:23;;;;;;;;;;;;;;;11.21;49.63;101507.97;4785682;29;20539;-48
2023/03/06 01:18:49;;;;;;;;;;;;;;;11.21;50.14;101507.97;4796902;29;20067;-45
2023/03/06 01:21:15;;;;;;;;;;;;;;;11.06;50.56;101515.31;4783812;29;19970;-44
2023/03/06 01:23:41;;;;;;;;;;;;;;;11.02;50.70;101508.66;4787145;30;19965;-47
2023/03/06 01:26:07;;;;;;;;;;;;;;;10.98;51.38;101518.91;4787445;30;19921;-46
2023/03/06 01:28:33;;;;;;;;;;;;;;;11.18;50.81;101512.91;4787052;30;19953;-45
2023/03/06 01:31:00;;;;;;;;;;;;;;;11.10;50.57;101522.75;4787434;30;19923;-47
2023/03/06 01:33:26;;;;;;;;;;;;;;;10.94;51.16;101520.34;4785549;30;20012;-48
2023/03/06 01:35:52;;;;;;;;;;;;;;;10.91;51.34;101533.28;4784043;29;20019;-46
2023/03/06 01:38:18;;;;;;;;;;;;;;;10.94;50.16;101532.88;4785686;29;20293;-49
2023/03/06 01:40:44;;;;;;;;;;;;;;;10.73;51.01;101531.88;4787140;30;19966;-46
2023/03/06 01:43:10;;;;;;;;;;;;;;;10.60;51.60;101530.88;4787138;30;19925;-46
2023/03/06 01:45:36;;;;;;;;;;;;;;;10.64;51.82;101530.31;4796637;29;20395;-46
2023/03/06 01:48:02;;;;;;;;;;;;;;;10.51;52.31;101538.22;4804626;29;19921;-45
2023/03/06 01:50:27;;;;;;;;;;;;;;;10.19;53.80;101534.09;4788200;29;19918;-44
2023/03/06 01:52:56;;;;;;;;;;;;;;;10.29;53.98;101540.84;4786983;30;20015;-46
2023/03/06 01:55:25;;;;;;;;;;;;;;;10.17;54.25;101541.47;4782479;30;19948;-47
2023/03/06 01:57:54;;;;;;;;;;;;;;;10.19;54.51;101542.13;4768787;30;20410;-47
2023/03/06 02:00:21;;;;;;;;;;;;;;;10.19;54.56;101553.63;4787175;30;19922;-47
2023/03/06 02:02:53;;;;;;;;;;;;;;;10.10;54.60;101541.38;4786924;30;20387;-47
2023/03/06 02:05:19;;;;;;;;;;;;;;;10.30;54.22;101552.38;4786963;30;19959;-48
2023/03/06 02:07:45;;;;;;;;;;;;;;;10.21;54.72;101551.59;4786423;30;19972;-46
2023/03/06 02:10:11;;;;;;;;;;;;;;;10.09;54.38;101554.94;4786934;30;19921;-45
2023/03/06 02:12:39;;;;;;;;;;;;;;;10.07;54.90;101556.97;4797557;29;19928;-48
2023/03/06 02:15:06;;;;;;;;;;;;;;;9.96;55.10;101555.59;4804844;29;19917;-47
2023/03/06 02:17:32;;;;;;;;;;;;;;;10.03;54.98;101551.97;4803826;29;19921;-45
2023/03/06 02:20:05;;;;;;;;;;;;;;;9.82;55.52;101559.91;4782870;29;20331;-45
2023/03/06 02:22:57;;;;;;;;;;;;;;;9.80;55.65;101567.28;4790269;30;20016;-46
2023/03/06 02:25:23;;;;;;;;;;;;;;;9.82;55.66;101575.13;4754323;30;20351;-46
2023/03/06 02:27:49;;;;;;;;;;;;;;;9.78;56.34;101580.84;4771812;30;19918;-44
2023/03/06 02:30:15;;;;;;;;;;;;;;;9.78;56.39;101580.84;4772160;30;20437;-46
2023/03/06 02:32:41;;;;;;;;;;;;;;;9.50;57.83;101588.63;4772367;30;19917;-49
2023/03/06 02:35:15;;;;;;;;;;;;;;;9.63;57.71;101589.84;4772456;30;20055;-46
2023/03/06 02:37:41;;;;;;;;;;;;;;;9.43;56.32;101625.06;4772159;30;20393;-47
2023/03/06 02:40:08;;;;;;;;;;;;;;;9.25;57.06;101609.34;4778332;30;19925;-46
2023/03/06 02:42:34;;;;;;;;;;;;;;;8.88;57.64;101617.28;4770883;30;20319;-46
2023/03/06 02:45:01;;;;;;;;;;;;;;;8.24;59.77;101622.72;4772258;30;20408;-49
2023/03/06 02:47:27;;;;;;;;;;;;;;;7.78;61.67;101621.66;4771941;30;19929;-47
2023/03/06 02:49:53;;;;;;;;;;;;;;;7.24;64.42;101637.31;4772023;30;19922;-48
2023/03/06 02:52:18;;;;;;;;;;;;;;;7.23;65.27;101638.31;4772107;30;20128;-48
2023/03/06 02:54:44;;;;;;;;;;;;;;;7.02;66.42;101631.59;4771896;30;20015;-49
2023/03/06 02:57:10;;;;;;;;;;;;;;;6.98;67.16;101630.25;4778487;30;19943;-47
2023/03/06 02:59:36;;;;;;;;;;;;;;;7.10;67.09;101626.28;4789529;30;20383;-47
2023/03/06 03:02:02;;;;;;;;;;;;;;;6.97;67.32;101628.59;4794029;29;20274;-47
2023/03/06 03:04:28;;;;;;;;;;;;;;;6.72;68.21;101619.72;4807755;29;20349;-51
2023/03/06 03:06:54;;;;;;;;;;;;;;;6.95;67.21;101632.44;4807614;29;20318;-48
2023/03/06 03:09:19;;;;;;;;;;;;;;;7.00;67.24;101628.28;4807714;29;19917;-46
2023/03/06 03:11:45;;;;;;;;;;;;;;;6.93;67.34;101635.22;4808067;29;19936;-48
2023/03/06 03:14:11;;;;;;;;;;;;;;;6.96;67.79;101632.25;4800486;29;19918;-47
2023/03/06 03:16:37;;;;;;;;;;;;;;;6.98;67.38;101624.94;4789610;30;20504;-48
2023/03/06 03:19:03;;;;;;;;;;;;;;;6.95;67.52;101627.94;4781029;30;19928;-47
2023/03/06 03:21:29;;;;;;;;;;;;;;;6.94;67.28;101623.63;4771665;30;19921;-48
2023/03/06 03:23:55;;;;;;;;;;;;;;;7.04;66.96;101624.28;4771520;30;19918;-48
2023/03/06 03:26:20;;;;;;;;;;;;;;;7.12;67.01;101618.97;4771366;30;20017;-46
2023/03/06 03:28:46;;;;;;;;;;;;;;;7.23;66.59;101623.16;4771477;30;19964;-48
2023/03/06 03:31:13;;;;;;;;;;;;;;;7.21;66.91;101622.47;4777694;29;19922;-49
2023/03/06 03:33:39;;;;;;;;;;;;;;;7.36;66.48;101630.66;4788759;30;19922;-48
2023/03/06 03:36:06;;;;;;;;;;;;;;;7.37;66.59;101637.63;4789460;30;19967;-46
2023/03/06 03:38:33;;;;;;;;;;;;;;;7.58;65.51;101629.16;4788816;30;20000;-46
2023/03/06 03:41:02;;;;;;;;;;;;;;;7.44;65.76;101622.69;4789111;30;19924;-49
2023/03/06 03:43:27;;;;;;;;;;;;;;;7.61;65.32;101637.66;4789059;30;20005;-45
2023/03/06 03:45:53;;;;;;;;;;;;;;;7.58;65.19;101637.97;4789160;30;20400;-45
2023/03/06 03:48:19;;;;;;;;;;;;;;;7.59;65.26;101644.97;4788541;30;19970;-50
2023/03/06 03:50:45;;;;;;;;;;;;;;;7.74;64.73;101636.31;4788794;30;19961;-46
2023/03/06 03:53:11;;;;;;;;;;;;;;;7.76;64.47;101637.78;4788888;30;19921;-45
2023/03/06 03:55:37;;;;;;;;;;;;;;;7.72;64.46;101654.28;4784501;29;19925;-46
2023/03/06 03:58:03;;;;;;;;;;;;;;;7.67;64.41;101649.47;4784122;29;20391;-46
2023/03/06 04:00:29;;;;;;;;;;;;;;;7.63;64.51;101656.13;4788839;30;19917;-45
2023/03/06 04:02:55;;;;;;;;;;;;;;;7.61;64.57;101656.31;4786343;29;19952;-49
2023/03/06 04:05:20;;;;;;;;;;;;;;;7.60;64.57;101659.13;4788560;30;19945;-48
2023/03/06 04:07:46;;;;;;;;;;;;;;;7.66;64.08;101661.13;4785803;29;20048;-47
2023/03/06 04:10:12;;;;;;;;;;;;;;;7.58;64.31;101656.63;4788476;30;20077;-47
2023/03/06 04:12:38;;;;;;;;;;;;;;;7.53;64.17;101658.94;4784240;29;20568;-49
2023/03/06 04:15:05;;;;;;;;;;;;;;;7.55;64.30;101653.44;4788216;30;19917;-46
2023/03/06 04:17:33;;;;;;;;;;;;;;;7.51;64.17;101668.13;4783986;29;19930;-48
2023/03/06 04:20:00;;;;;;;;;;;;;;;7.46;64.24;101665.94;4783979;29;20309;-49
2023/03/06 04:22:26;;;;;;;;;;;;;;;7.41;64.20;101666.44;4787107;29;19971;-45
2023/03/06 04:24:52;;;;;;;;;;;;;;;7.37;64.34;101661.59;4784719;29;19928;-47
2023/03/06 04:27:17;;;;;;;;;;;;;;;7.35;64.25;101660.94;4784913;29;19921;-48
2023/03/06 04:29:43;;;;;;;;;;;;;;;7.29;64.46;101656.28;4784368;29;19925;-48
2023/03/06 04:32:09;;;;;;;;;;;;;;;7.38;65.14;101661.47;4786844;29;19921;-48
2023/03/06 04:34:35;;;;;;;;;;;;;;;7.26;65.21;101656.59;4786024;29;20040;-46
2023/03/06 04:37:01;;;;;;;;;;;;;;;7.23;65.06;101659.59;4785467;29;20696;-47
2023/03/06 04:39:27;;;;;;;;;;;;;;;7.12;65.25;101664.25;4783516;29;20008;-46
2023/03/06 04:41:53;;;;;;;;;;;;;;;7.08;65.07;101662.88;4784803;29;20000;-48
2023/03/06 04:44:19;;;;;;;;;;;;;;;7.04;65.27;101664.19;4784561;29;20020;-45
2023/03/06 04:46:44;;;;;;;;;;;;;;;7.06;65.30;101670.22;4782790;29;20044;-48
2023/03/06 04:49:10;;;;;;;;;;;;;;;7.07;65.51;101668.38;4787935;30;19925;-45
2023/03/06 04:51:36;;;;;;;;;;;;;;;7.05;65.89;101671.22;4784475;29;19967;-51
2023/03/06 04:54:02;;;;;;;;;;;;;;;7.11;65.90;101673.22;4781117;29;20455;-46
2023/03/06 04:56:29;;;;;;;;;;;;;;;7.06;65.94;101680.88;4787748;30;20381;-45
2023/03/06 04:58:55;;;;;;;;;;;;;;;7.29;65.79;101680.25;4784558;29;20004;-48
2023/03/06 05:01:21;;;;;;;;;;;;;;;7.09;66.14;101674.38;4787068;30;20012;-46
2023/03/06 05:03:48;;;;;;;;;;;;;;;6.93;66.85;101680.47;4785514;30;20390;-48
2023/03/06 05:06:14;;;;;;;;;;;;;;;7.08;66.56;101683.34;4787402;30;19924;-44
2023/03/06 05:08:40;;;;;;;;;;;;;;;7.02;66.58;101684.84;4784232;29;19918;-47
2023/03/06 05:11:06;;;;;;;;;;;;;;;7.00;66.82;101686.00;4787602;30;20296;-44
2023/03/06 05:13:32;;;;;;;;;;;;;;;6.76;67.68;101686.72;4784521;29;19928;-45
2023/03/06 05:16:05;;;;;;;;;;;;;;;6.79;67.60;101681.94;4784814;29;19925;-46
2023/03/06 05:18:31;;;;;;;;;;;;;;;6.84;67.44;101684.13;4771049;29;19921;-46
2023/03/06 05:20:58;;;;;;;;;;;;;;;6.57;68.25;101683.34;4782501;29;19921;-46
2023/03/06 05:23:28;;;;;;;;;;;;;;;6.60;68.07;101690.97;4782170;29;19921;-46
2023/03/06 05:25:55;;;;;;;;;;;;;;;6.71;67.99;101686.38;4787413;30;19957;-46
2023/03/06 05:28:20;;;;;;;;;;;;;;;6.71;67.93;101686.38;4783158;29;19925;-45
2023/03/06 05:30:47;;;;;;;;;;;;;;;6.60;68.03;101696.31;4785882;29;20412;-46
2023/03/06 05:33:12;;;;;;;;;;;;;;;6.08;69.78;101701.66;4784754;29;20024;-48
2023/03/06 05:35:38;;;;;;;;;;;;;;;6.30;69.06;101697.66;4783992;29;20004;-45
2023/03/06 05:38:04;;;;;;;;;;;;;;;6.29;68.88;101706.63;4786978;30;19913;-47
2023/03/06 05:40:30;;;;;;;;;;;;;;;6.28;68.84;101715.59;4786157;29;19921;-47
2023/03/06 05:42:56;;;;;;;;;;;;;;;6.40;68.27;101710.84;4787310;30;19925;-46
2023/03/06 05:45:22;;;;;;;;;;;;;;;6.44;67.93;101706.88;4783859;29;19917;-44
2023/03/06 05:47:48;;;;;;;;;;;;;;;6.54;67.85;101702.25;4782098;29;19929;-45
2023/03/06 05:50:13;;;;;;;;;;;;;;;6.37;68.33;101705.81;4785689;29;19929;-45
2023/03/06 05:52:39;;;;;;;;;;;;;;;6.46;68.70;101704.88;4787093;30;19917;-47
2023/03/06 05:55:06;;;;;;;;;;;;;;;6.60;68.39;101712.25;4784169;29;19921;-47
2023/03/06 05:57:32;;;;;;;;;;;;;;;6.50;68.31;101711.56;4783063;29;19968;-49
2023/03/06 05:59:58;;;;;;;;;;;;;;;6.50;68.11;101718.72;4785754;29;19976;-49
2023/03/06 06:02:23;;;;;;;;;;;;;;;6.33;68.68;101715.97;4785562;30;19948;-49
2023/03/06 06:04:49;;;;;;;;;;;;;;;6.21;69.06;101721.69;4781772;29;20298;-49
2023/03/06 06:07:15;;;;;;;;;;;;;;;6.49;68.36;101720.50;4779560;29;19925;-48
2023/03/06 06:09:44;;;;;;;;;;;;;;;6.60;67.69;101725.56;4787079;30;19937;-50
2023/03/06 06:12:10;;;;;;;;;;;;;;;6.54;67.77;101723.53;4785823;29;19928;-48
2023/03/06 06:14:36;;;;;;;;;;;;;;;6.58;67.61;101724.91;4786333;29;20312;-46
2023/03/06 06:17:02;;;;;;;;;;;;;;;6.51;67.25;101718.56;4776747;29;19927;-46
2023/03/06 06:19:29;;;;;;;;;;;;;;;6.55;66.94;101725.22;4783196;29;20481;-49
2023/03/06 06:21:55;;;;;;;;;;;;;;;6.59;66.76;101723.06;4785746;30;19925;-47
2023/03/06 06:24:22;;;;;;;;;;;;;;;6.46;67.50;101734.16;4785264;29;20460;-48
2023/03/06 06:26:52;;;;;;;;;;;;;;;6.43;67.58;101733.63;4782077;29;20401;-46
2023/03/06 06:29:19;;;;;;;;;;;;;;;6.56;67.02;101732.22;4786507;30;19917;-48
2023/03/06 06:31:45;;;;;;;;;;;;;;;6.45;67.13;101732.47;4781766;29;19937;-46
2023/03/06 06:34:11;;;;;;;;;;;;;;;6.50;67.19;101738.16;4785066;30;19929;-53
2023/03/06 06:36:37;;;;;;;;;;;;;;;6.53;67.10;101742.31;4781828;29;19932;-46
2023/03/06 06:39:03;;;;;;;;;;;;;;;6.62;67.05;101749.38;4786438;30;19953;-46
2023/03/06 06:41:29;;;;;;;;;;;;;;;6.51;67.38;101749.63;4783536;29;19921;-48
2023/03/06 06:43:55;;;;;;;;;;;;;;;6.54;67.37;101751.97;4786452;30;20476;-45
2023/03/06 06:46:21;;;;;;;;;;;;;;;6.63;67.38;101755.53;4779827;29;20032;-44
2023/03/06 06:48:48;;;;;;;;;;;;;;;6.44;68.07;101756.56;4785562;30;20262;-48
2023/03/06 06:51:14;;;;;;;;;;;;;;;6.53;68.02;101760.94;4785243;29;19925;-48
2023/03/06 06:53:40;;;;;;;;;;;;;;;6.57;67.62;101764.97;4786233;30;19922;-48
2023/03/06 06:56:06;;;;;;;;;;;;;;;6.51;68.09;101761.09;4785289;29;19926;-46
2023/03/06 06:58:31;;;;;;;;;;;;;;;6.46;67.96;101768.72;4783413;30;19925;-48
2023/03/06 07:01:03;;;;;;;;;;;;;;;6.47;67.83;101769.56;4786546;30;19924;-46
2023/03/06 07:03:29;;;;;;;;;;;;;;;6.57;68.03;101765.81;4786314;30;20431;-49
2023/03/06 07:05:55;;;;;;;;;;;;;;;6.53;68.12;101764.44;4779095;29;19949;-47
2023/03/06 07:08:21;;;;;;;;;;;;;;;6.53;67.95;101764.44;4788969;30;19928;-48
2023/03/06 07:10:47;;;;;;;;;;;;;;;6.35;68.96;101761.84;4789420;30;19955;-47
2023/03/06 07:13:13;;;;;;;;;;;;;;;6.38;69.16;101755.34;4789088;30;19918;-46
2023/03/06 07:15:38;;;;;;;;;;;;;;;6.40;68.84;101757.88;4789587;30;20080;-47
2023/03/06 07:18:04;;;;;;;;;;;;;;;6.53;68.72;101751.13;4789177;30;20023;-47
2023/03/06 07:20:30;;;;;;;;;;;;;;;6.42;68.93;101754.06;4775790;30;20366;-44
2023/03/06 07:22:56;;;;;;;;;;;;;;;6.43;68.74;101752.22;4771559;30;19917;-45
2023/03/06 07:25:22;;;;;;;;;;;;;;;6.41;68.87;101751.56;4771482;30;19928;-47
2023/03/06 07:27:52;;;;;;;;;;;;;;;6.53;68.34;101747.66;4771062;30;19918;-48
2023/03/06 07:30:18;;;;;;;;;;;;;;;6.49;68.52;101755.09;4786047;30;19917;-45
2023/03/06 07:32:44;;;;;;;;;;;;;;;6.53;68.95;101752.97;4789427;30;20285;-49
2023/03/06 07:35:13;;;;;;;;;;;;;;;6.43;68.82;101753.06;4789280;30;19934;-48
2023/03/06 07:37:39;;;;;;;;;;;;;;;6.50;68.75;101748.81;4788975;30;19996;-46
2023/03/06 07:40:05;;;;;;;;;;;;;;;6.42;68.75;101759.38;4789235;30;20032;-44
2023/03/06 07:42:31;;;;;;;;;;;;;;;6.47;68.84;101751.75;4788976;30;19941;-44
2023/03/06 07:44:56;;;;;;;;;;;;;;;6.23;69.62;101762.25;4789198;30;19921;-48
2023/03/06 07:47:22;;;;;;;;;;;;;;;6.18;70.29;101759.22;4788283;29;20305;-45
2023/03/06 07:49:48;;;;;;;;;;;;;;;6.39;69.36;101762.38;4788952;30;20369;-44
2023/03/06 07:52:14;;;;;;;;;;;;;;;6.33;69.78;101765.66;4788994;29;19917;-45
2023/03/06 07:54:40;;;;;;;;;;;;;;;6.32;69.88;101766.63;4788799;30;19917;-44
2023/03/06 07:57:06;;;;;;;;;;;;;;;6.33;69.83;101763.81;4774691;30;19922;-44
2023/03/06 07:59:31;;;;;;;;;;;;;;;6.33;70.12;101768.31;4781711;29;20381;-45
2023/03/06 08:01:57;;;;;;;;;;;;;;;6.31;70.25;101765.78;4785816;29;19925;-47
2023/03/06 08:04:23;;;;;;;;;;;;;;;6.26;70.40;101772.56;4788403;30;19966;-49
2023/03/06 08:06:49;;;;;;;;;;;;;;;6.44;69.87;101777.81;4781836;29;19925;-46
2023/03/06 08:09:15;;;;;;;;;;;;;;;6.34;70.14;101776.13;4787397;30;19928;-46
2023/03/06 08:11:41;;;;;;;;;;;;;;;6.21;70.50;101785.47;4787454;30;20068;-46
2023/03/06 08:14:07;;;;;;;;;;;;;;;6.29;70.78;101774.91;4785468;30;19928;-45
2023/03/06 08:16:32;;;;;;;;;;;;;;;6.19;70.69;101775.00;4788734;30;19921;-49
2023/03/06 08:18:58;;;;;;;;;;;;;;;6.33;70.42;101768.31;4785162;29;19959;-45
2023/03/06 08:21:25;;;;;;;;;;;;;;;6.20;70.94;101773.19;4785009;29;19928;-45
2023/03/06 08:23:51;;;;;;;;;;;;;;;6.07;70.84;101778.91;4788338;30;19917;-45
2023/03/06 08:26:18;;;;;;;;;;;;;;;6.03;71.07;101778.38;4784281;29;19928;-47
2023/03/06 08:28:44;;;;;;;;;;;;;;;6.06;70.81;101779.91;4788386;30;20377;-48
2023/03/06 08:31:11;;;;;;;;;;;;;;;6.04;70.65;101782.69;4786217;29;19922;-47
2023/03/06 08:33:37;;;;;;;;;;;;;;;6.03;70.50;101785.50;4780956;29;20092;-43
2023/03/06 08:36:04;;;;;;;;;;;;;;;6.03;70.79;101788.16;4788335;30;19971;-46
2023/03/06 08:38:29;;;;;;;;;;;;;;;6.04;70.57;101787.16;4784709;30;19944;-49
2023/03/06 08:40:55;;;;;;;;;;;;;;;6.04;70.15;101793.31;4786936;29;20377;-48
2023/03/06 08:43:21;;;;;;;;;;;;;;;6.05;70.15;101788.81;4784674;29;20305;-46
2023/03/06 08:45:54;;;;;;;;;;;;;;;6.06;69.95;101794.00;4787918;30;19917;-49
2023/03/06 08:48:20;;;;;;;;;;;;;;;6.06;69.87;101796.66;4785433;29;19968;-47
2023/03/06 08:50:45;;;;;;;;;;;;;;;5.97;70.07;101800.22;4786741;29;19925;-46
2023/03/06 08:53:11;;;;;;;;;;;;;;;5.96;70.23;101805.72;4787842;29;19938;-46
2023/03/06 08:55:38;;;;;;;;;;;;;;;5.92;70.05;101807.00;4783773;29;19930;-45
2023/03/06 08:58:03;;;;;;;;;;;;;;;5.88;70.00;101811.72;4787544;30;19978;-46
2023/03/06 09:00:30;;;;;;;;;;;;;;;5.81;69.95;101810.69;4785903;29;20029;-47
2023/03/06 09:02:56;;;;;;;;;;;;;;;5.85;69.91;101816.53;4787017;30;19921;-49
2023/03/06 09:05:21;;;;;;;;;;;;;;;5.81;69.69;101816.00;4787026;29;19929;-47
2023/03/06 09:07:47;;;;;;;;;;;;;;;5.81;69.71;101816.81;4787128;30;19965;-48
2023/03/06 09:10:17;;;;;;;;;;;;;;;5.81;69.72;101824.78;4787724;30;19933;-45
2023/03/06 09:12:44;;;;;;;;;;;;;;;5.71;70.06;101826.69;4786010;29;20062;-47
2023/03/06 09:15:11;;;;;;;;;;;;;;;5.72;69.98;101824.84;4786191;29;20015;-46
2023/03/06 09:17:37;;;;;;;;;;;;;;;5.69;69.75;101826.00;4787454;30;19953;-48
2023/03/06 09:20:04;;;;;;;;;;;;;;;5.67;70.06;101827.16;4783594;29;19958;-49
2023/03/06 09:22:30;;;;;;;;;;;;;;;5.64;69.95;101824.78;4786524;30;20062;-46
2023/03/06 09:24:56;;;;;;;;;;;;;;;5.67;70.24;101827.16;4783724;29;19926;-45
2023/03/06 09:27:22;;;;;;;;;;;;;;;5.63;70.22;101831.09;4787536;30;20387;-45
2023/03/06 09:29:48;;;;;;;;;;;;;;;5.34;71.94;101828.59;4782895;29;19933;-46
2023/03/06 09:32:14;;;;;;;;;;;;;;;5.37;71.73;101830.94;4787232;30;20391;-44
2023/03/06 09:34:40;;;;;;;;;;;;;;;5.21;72.82;101832.41;4784920;29;19929;-47
2023/03/06 09:37:06;;;;;;;;;;;;;;;5.27;72.90;101828.31;4785947;30;20381;-44
2023/03/06 09:39:32;;;;;;;;;;;;;;;5.34;72.65;101826.78;4786002;29;19971;-47
2023/03/06 09:41:57;;;;;;;;;;;;;;;5.33;72.35;101824.25;4787197;30;20015;-45
2023/03/06 09:44:24;;;;;;;;;;;;;;;5.44;72.14;101830.22;4783928;29;20004;-45
2023/03/06 09:46:56;;;;;;;;;;;;;;;5.45;71.79;101820.44;4776706;29;19932;-45
2023/03/06 09:49:29;;;;;;;;;;;;;;;5.47;71.68;101827.25;4787086;30;20341;-47
2023/03/06 09:52:03;;;;;;;;;;;;;;;5.50;71.07;101820.81;4783677;29;20335;-48
2023/03/06 09:54:42;;;;;;;;;;;;;;;5.41;71.43;101821.69;4786962;30;19918;-45
2023/03/06 09:57:16;;;;;;;;;;;;;;;5.36;71.60;101822.13;4780224;29;20297;-45
2023/03/06 09:59:44;;;;;;;;;;;;;;;5.44;71.21;101824.91;4786903;30;19940;-45
2023/03/06 10:02:25;;;;;;;;;;;;;;;5.34;71.19;101816.16;4784426;29;20024;-45
2023/03/06 10:04:58;;;;;;;;;;;;;;;5.31;71.17;101819.09;4783346;29;19924;-45
2023/03/06 10:07:42;;;;;;;;;;;;;;;5.23;71.60;101817.19;4779386;29;19961;-44
2023/03/06 10:10:14;;;;;;;;;;;;;;;5.27;71.64;101828.31;4786769;30;19914;-46
2023/03/06 10:12:43;;;;;;;;;;;;;;;5.23;72.05;101827.81;4783688;29;20024;-44
2023/03/06 10:15:17;;;;;;;;;;;;;;;5.27;71.79;101830.97;4786899;30;19918;-45
2023/03/06 10:17:43;;;;;;;;;;;;;;;5.38;71.67;101827.28;4768652;30;19956;-44
2023/03/06 10:20:29;;;;;;;;;;;;;;;5.49;71.39;101833.22;4786541;30;19964;-44
2023/03/06 10:23:04;;;;;;;;;;;;;;;5.66;71.22;101834.25;4762622;29;19970;-45
2023/03/06 10:25:30;;;;;;;;;;;;;;;5.68;70.98;101826.16;4785651;29;19922;-44
2023/03/06 10:27:58;;;;;;;;;;;;;;;5.38;72.36;101827.28;4781791;29;19965;-45
2023/03/06 10:30:37;;;;;;;;;;;;;;;5.24;73.31;101821.50;4784613;29;20020;-44
2023/03/06 10:33:21;;;;;;;;;;;;;;;5.12;73.53;101819.19;4786585;30;19940;-45
2023/03/06 10:35:48;;;;;;;;;;;;;;;5.15;74.01;101817.06;4785601;29;19928;-46
2023/03/06 10:38:22;;;;;;;;;;;;;;;5.31;73.17;101816.44;4785420;29;20362;-47
2023/03/06 10:40:57;;;;;;;;;;;;;;;5.01;74.24;101815.75;4787089;29;20311;-46
2023/03/06 10:43:23;;;;;;;;;;;;;;;5.06;74.09;101817.97;4789102;30;19922;-47
2023/03/06 10:45:50;;;;;;;;;;;;;;;5.13;73.47;101810.25;4789978;30;19917;-48
2023/03/06 10:48:21;;;;;;;;;;;;;;;5.10;73.21;101807.88;4788566;29;19928;-47
2023/03/06 10:50:47;;;;;;;;;;;;;;;5.12;73.12;101798.78;4790113;30;20383;-47
2023/03/06 10:53:22;;;;;;;;;;;;;;;5.19;72.79;101804.34;4786841;29;19967;-45
2023/03/06 10:55:52;;;;;;;;;;;;;;;5.07;72.52;101801.06;4783261;30;19922;-48
2023/03/06 10:58:22;;;;;;;;;;;;;;;5.10;72.43;101800.75;4781206;29;19946;-46
2023/03/06 11:00:59;;;;;;;;;;;;;;;5.04;72.20;101796.84;4790093;30;19928;-44
2023/03/06 11:03:25;;;;;;;;;;;;;;;5.07;72.14;101793.09;4786806;29;19971;-47
2023/03/06 11:06:02;;;;;;;;;;;;;;;5.04;72.11;101793.38;4789362;30;19957;-46
2023/03/06 11:08:28;;;;;;;;;;;;;;;5.05;72.88;101787.06;4782921;29;20657;-44
2023/03/06 11:10:55;;;;;;;;;;;;;;;5.09;73.07;101784.97;4789285;30;20451;-44
2023/03/06 11:13:23;;;;;;;;;;;;;;;4.91;73.46;101783.09;4786329;30;19921;-46
2023/03/06 11:16:06;;;;;;;;;;;;;;;5.07;73.62;101781.66;4789433;30;20407;-44
2023/03/06 11:18:37;;;;;;;;;;;;;;;5.22;73.44;101782.84;4784243;29;20225;-45
2023/03/06 11:21:23;;;;;;;;;;;;;;;5.13;74.09;101773.09;4789462;30;20293;-45
2023/03/06 11:23:49;;;;;;;;;;;;;;;5.30;73.88;101777.59;4788886;30;19933;-47
2023/03/06 11:26:15;;;;;;;;;;;;;;;5.37;73.90;101777.84;4788101;30;19956;-44
2023/03/06 11:28:43;;;;;;;;;;;;;;;5.47;73.81;101784.75;4785778;29;19955;-46
2023/03/06 11:31:14;;;;;;;;;;;;;;;5.64;73.29;101777.81;4786242;29;19921;-46
2023/03/06 11:33:45;;;;;;;;;;;;;;;5.70;73.87;101789.66;4789021;30;19917;-44
2023/03/06 11:36:11;;;;;;;;;;;;;;;5.83;74.01;101784.81;4788178;29;19928;-44
2023/03/06 11:38:39;;;;;;;;;;;;;;;5.78;74.67;101785.25;4782049;29;19926;-44
2023/03/06 11:41:13;;;;;;;;;;;;;;;5.85;75.02;101774.84;4789252;30;19918;-46
2023/03/06 11:43:50;;;;;;;;;;;;;;;6.06;74.56;101777.25;4785346;30;19974;-44
2023/03/06 11:46:22;;;;;;;;;;;;;;;6.00;74.36;101781.34;4788731;30;19921;-48
2023/03/06 11:48:57;;;;;;;;;;;;;;;5.98;74.04;101769.19;4786025;29;20436;-48
2023/03/06 11:51:25;;;;;;;;;;;;;;;6.14;73.47;101779.13;4788119;29;19926;-45
2023/03/06 11:53:52;;;;;;;;;;;;;;;6.07;73.56;101773.59;4786267;29;20023;-44
2023/03/06 11:56:18;;;;;;;;;;;;;;;6.02;73.71;101778.53;4771908;30;19928;-45
2023/03/06 11:58:50;;;;;;;;;;;;;;;6.04;73.24;101777.38;4786735;29;19993;-47
2023/03/06 12:01:22;;;;;;;;;;;;;;;5.92;73.42;101775.94;4787910;29;20365;-44
2023/03/06 12:03:54;;;;;;;;;;;;;;;6.07;72.02;101779.72;4782446;29;19974;-47
2023/03/06 12:06:27;;;;;;;;;;;;;;;6.25;71.72;101773.56;4787564;30;20594;-44
2023/03/06 12:09:03;;;;;;;;;;;;;;;6.02;73.04;101778.53;4786579;29;20012;-45
2023/03/06 12:11:38;;;;;;;;;;;;;;;6.16;72.11;101777.13;4787874;29;20274;-44
2023/03/06 12:14:10;;;;;;;;;;;;;;;6.13;71.87;101775.63;4788367;29;20371;-45
2023/03/06 12:16:54;;;;;;;;;;;;;;;5.96;72.66;101772.00;4787603;29;19921;-45
2023/03/06 12:19:35;;;;;;;;;;;;;;;6.04;71.70;101769.38;4786337;29;19975;-48
2023/03/06 12:22:19;;;;;;;;;;;;;;;6.13;71.91;101766.81;4788591;30;20369;-48
2023/03/06 12:25:10;;;;;;;;;;;;;;;5.96;71.43;101771.16;4786295;29;19924;-47
2023/03/06 12:27:54;;;;;;;;;;;;;;;6.11;71.32;101780.28;4785085;29;19971;-46
2023/03/06 12:30:39;;;;;;;;;;;;;;;6.20;71.44;101781.16;4787890;30;20016;-46
2023/03/06 12:33:14;;;;;;;;;;;;;;;5.99;71.15;101782.31;4787332;30;19921;-45
2023/03/06 12:35:46;;;;;;;;;;;;;;;5.97;71.21;101773.66;4788138;30;19918;-47
2023/03/06 12:38:31;;;;;;;;;;;;;;;5.98;71.51;101775.31;4784762;29;19983;-45
2023/03/06 12:40:59;;;;;;;;;;;;;;;6.01;71.00;101780.34;4782581;29;19929;-45
2023/03/06 12:43:43;;;;;;;;;;;;;;;6.15;70.91;101776.28;4784651;30;24264;-45
2023/03/06 12:46:36;;;;;;;;;;;;;;;6.01;71.67;101785.66;4776854;29;19923;-42
2023/03/06 12:49:28;;;;;;;;;;;;;;;6.04;71.20;101781.84;4781471;29;20373;-47